createdAt,value
2023-03-20T00:24:41.900Z,35.40
2023-03-20T00:25:41.872Z,33.03
2023-03-20T00:26:41.837Z,36.95
2023-03-20T00:27:41.802Z,33.60
2023-03-20T00:28:41.821Z,34.41
2023-03-20T00:29:41.756Z,33.37
2023-03-20T00:30:41.734Z,34.30
2023-03-20T00:31:41.816Z,36.16
2023-03-20T00:32:41.731Z,33.14
2023-03-20T00:33:41.708Z,34.41
2023-03-20T00:34:41.691Z,33.78
2023-03-20T00:35:41.722Z,34.50
2023-03-20T00:36:41.671Z,37.40
2023-03-20T00:37:42.219Z,34.72
2023-03-20T00:38:41.671Z,33.83
2023-03-20T00:39:41.664Z,34.00
2023-03-20T00:40:41.651Z,28.80
2023-03-20T00:41:41.674Z,34.58
2023-03-20T00:42:41.652Z,35.42
2023-03-20T00:43:41.645Z,32.92
2023-03-20T00:44:42.594Z,34.35
2023-03-20T00:45:41.621Z,32.84
2023-03-20T00:46:41.715Z,35.14
2023-03-20T00:47:41.612Z,32.31
2023-03-20T00:48:41.596Z,33.89
2023-03-20T00:49:41.583Z,33.44
2023-03-20T00:50:41.570Z,35.29
2023-03-20T00:51:41.575Z,37.85
2023-03-20T00:52:41.559Z,35.59
2023-03-20T00:53:41.554Z,33.42
2023-03-20T00:54:41.556Z,32.11
2023-03-20T00:55:41.623Z,34.50
2023-03-20T00:56:41.548Z,30.82
2023-03-20T00:57:41.549Z,31.68
2023-03-20T00:58:41.528Z,34.88
2023-03-20T00:59:41.517Z,33.83
2023-03-20T01:00:41.618Z,35.37
2023-03-20T01:01:41.553Z,34.52
2023-03-20T01:02:41.490Z,34.52
2023-03-20T01:03:41.486Z,31.44
2023-03-20T01:04:41.485Z,35.40
2023-03-20T01:05:41.730Z,34.76
2023-03-20T01:06:41.476Z,35.34
2023-03-20T01:07:41.504Z,33.47
2023-03-20T01:08:41.508Z,35.23
2023-03-20T01:09:41.528Z,35.04
2023-03-20T01:10:41.566Z,31.98
2023-03-20T01:11:41.509Z,34.28
2023-03-20T01:12:41.505Z,34.36
2023-03-20T01:13:41.491Z,33.73
2023-03-20T01:14:41.514Z,32.84
2023-03-20T01:15:41.493Z,31.62
2023-03-20T01:16:41.533Z,35.01
2023-03-20T01:17:41.503Z,32.86
2023-03-20T01:18:41.491Z,32.38
2023-03-20T01:19:41.504Z,35.62
2023-03-20T01:20:41.480Z,35.47
2023-03-20T01:21:41.529Z,33.61
2023-03-20T01:22:41.489Z,30.69
2023-03-20T01:23:41.465Z,31.36
2023-03-20T01:24:41.462Z,34.08
2023-03-20T01:25:41.523Z,35.18
2023-03-20T01:26:41.459Z,30.98
2023-03-20T01:27:41.444Z,32.60
2023-03-20T01:28:41.518Z,33.33
2023-03-20T01:29:42.230Z,33.63
2023-03-20T01:30:41.496Z,34.02
2023-03-20T01:31:41.531Z,33.80
2023-03-20T01:32:41.496Z,33.95
2023-03-20T01:33:41.562Z,38.10
2023-03-20T01:34:41.475Z,35.42
2023-03-20T01:35:41.556Z,31.00
2023-03-20T01:36:41.524Z,32.62
2023-03-20T01:37:41.730Z,32.53
2023-03-20T01:38:41.482Z,36.14
2023-03-20T01:39:41.491Z,33.80
2023-03-20T01:40:41.459Z,33.93
2023-03-20T01:41:42.434Z,34.11
2023-03-20T01:42:41.396Z,34.33
2023-03-20T01:43:41.369Z,34.03
2023-03-20T01:44:41.338Z,33.98
2023-03-20T01:45:41.449Z,32.96
2023-03-20T01:46:41.292Z,32.64
2023-03-20T01:47:41.264Z,34.57
2023-03-20T01:48:41.244Z,35.36
2023-03-20T01:49:41.202Z,33.12
2023-03-20T01:50:41.232Z,34.79
2023-03-20T01:51:41.788Z,31.75
2023-03-20T01:52:41.114Z,34.41
2023-03-20T01:53:41.143Z,36.80
2023-03-20T01:54:41.214Z,31.06
2023-03-20T01:55:41.254Z,32.38
2023-03-20T01:56:41.253Z,34.79
2023-03-20T01:57:41.309Z,35.51
2023-03-20T01:58:41.343Z,31.76
2023-03-20T01:59:41.360Z,34.39
2023-03-20T02:00:41.389Z,32.25
2023-03-20T02:01:41.427Z,35.38
2023-03-20T02:02:41.458Z,33.50
2023-03-20T02:03:41.509Z,35.74
2023-03-20T02:04:41.579Z,31.88
2023-03-20T02:05:41.573Z,36.54
2023-03-20T02:06:41.603Z,36.91
2023-03-20T02:07:41.646Z,35.65
2023-03-20T02:08:41.675Z,33.14
2023-03-20T02:09:41.799Z,34.47
2023-03-20T02:10:41.759Z,35.08
2023-03-20T02:11:41.783Z,35.67
2023-03-20T02:12:41.814Z,34.46
2023-03-20T02:13:41.860Z,32.97
2023-03-20T02:14:41.886Z,33.97
2023-03-20T02:15:41.908Z,35.24
2023-03-20T02:16:42.105Z,34.12
2023-03-20T02:17:41.980Z,32.42
2023-03-20T02:18:42.038Z,33.64
2023-03-20T02:19:42.032Z,33.31
2023-03-20T02:20:42.071Z,35.27
2023-03-20T02:21:42.731Z,34.18
2023-03-20T02:22:42.133Z,34.18
2023-03-20T02:23:42.247Z,33.78
2023-03-20T02:24:42.736Z,33.56
2023-03-20T02:25:42.209Z,34.98
2023-03-20T02:26:42.238Z,33.85
2023-03-20T02:27:42.260Z,34.71
2023-03-20T02:28:42.293Z,35.18
2023-03-20T02:29:42.317Z,35.17
2023-03-20T02:30:42.377Z,35.51
2023-03-20T02:31:42.383Z,36.48
2023-03-20T02:32:42.531Z,35.52
2023-03-20T02:33:42.428Z,36.64
2023-03-20T02:34:42.458Z,35.35
2023-03-20T02:35:42.581Z,31.86
2023-03-20T02:36:42.521Z,33.25
2023-03-20T02:37:42.533Z,35.79
2023-03-20T02:38:42.562Z,34.42
2023-03-20T02:39:42.586Z,35.70
2023-03-20T02:40:42.617Z,34.05
2023-03-20T02:41:42.702Z,33.78
2023-03-20T02:42:42.672Z,34.72
2023-03-20T02:43:42.794Z,33.44
2023-03-20T02:44:42.710Z,38.07
2023-03-20T02:45:42.749Z,37.46
2023-03-20T02:46:42.771Z,36.70
2023-03-20T02:47:42.808Z,33.54
2023-03-20T02:48:42.819Z,33.93
2023-03-20T02:49:42.841Z,34.90
2023-03-20T02:50:42.873Z,35.14
2023-03-20T02:51:42.895Z,33.73
2023-03-20T02:52:42.927Z,34.68
2023-03-20T02:53:42.944Z,34.75
2023-03-20T02:54:42.978Z,36.24
2023-03-20T02:55:42.984Z,36.37
2023-03-20T02:56:43.017Z,35.29
2023-03-20T02:57:43.046Z,32.13
2023-03-20T02:58:43.071Z,35.54
2023-03-20T02:59:43.082Z,33.59
2023-03-20T03:00:43.113Z,32.75
2023-03-20T03:01:43.169Z,34.90
2023-03-20T03:02:43.214Z,31.63
2023-03-20T03:03:43.161Z,34.05
2023-03-20T03:04:43.752Z,35.08
2023-03-20T03:05:43.200Z,34.95
2023-03-20T03:06:43.233Z,35.06
2023-03-20T03:07:43.246Z,36.37
2023-03-20T03:08:43.282Z,38.15
2023-03-20T03:09:43.329Z,33.98
2023-03-20T03:10:43.306Z,35.51
2023-03-20T03:11:43.334Z,37.60
2023-03-20T03:12:43.758Z,35.71
2023-03-20T03:13:43.461Z,37.50
2023-03-20T03:14:43.400Z,32.70
2023-03-20T03:15:43.450Z,35.46
2023-03-20T03:16:43.444Z,34.65
2023-03-20T03:17:43.469Z,34.47
2023-03-20T03:18:43.494Z,35.36
2023-03-20T03:19:43.503Z,35.84
2023-03-20T03:20:43.533Z,36.57
2023-03-20T03:21:43.558Z,37.08
2023-03-20T03:22:43.578Z,33.77
2023-03-20T03:23:43.620Z,35.25
2023-03-20T03:24:43.617Z,35.39
2023-03-20T03:25:43.647Z,34.31
2023-03-20T03:26:43.761Z,32.27
2023-03-20T03:27:43.708Z,33.81
2023-03-20T03:28:43.707Z,30.83
2023-03-20T03:30:43.758Z,37.03
2023-03-20T03:31:43.782Z,34.19
2023-03-20T03:32:43.845Z,32.79
2023-03-20T03:33:43.828Z,33.60
2023-03-20T03:34:43.842Z,34.56
2023-03-20T03:35:43.905Z,35.67
2023-03-20T03:36:43.889Z,33.35
2023-03-20T03:37:44.005Z,34.57
2023-03-20T03:38:43.940Z,34.11
2023-03-20T03:39:43.967Z,34.91
2023-03-20T03:40:43.984Z,35.86
2023-03-20T03:41:44.210Z,32.86
2023-03-20T03:42:44.035Z,35.10
2023-03-20T03:43:44.059Z,37.86
2023-03-20T03:44:44.110Z,34.53
2023-03-20T03:45:44.111Z,32.18
2023-03-20T03:46:44.926Z,33.75
2023-03-20T03:47:44.167Z,36.94
2023-03-20T03:48:44.199Z,38.81
2023-03-20T03:49:44.312Z,32.72
2023-03-20T03:50:44.319Z,34.12
2023-03-20T03:51:44.272Z,29.79
2023-03-20T03:52:44.301Z,35.84
2023-03-20T03:53:44.321Z,34.01
2023-03-20T03:54:44.408Z,32.13
2023-03-20T03:55:44.397Z,34.48
2023-03-20T03:56:44.411Z,36.71
2023-03-20T03:57:44.427Z,36.01
2023-03-20T03:58:45.265Z,32.40
2023-03-20T03:59:44.501Z,32.78
2023-03-20T04:00:44.502Z,33.10
2023-03-20T04:01:44.620Z,32.84
2023-03-20T04:02:44.561Z,34.78
2023-03-20T04:03:44.571Z,33.42
2023-03-20T04:04:44.653Z,33.73
2023-03-20T04:05:44.609Z,32.27
2023-03-20T04:06:44.627Z,33.91
2023-03-20T04:07:44.649Z,34.82
2023-03-20T04:08:44.656Z,31.18
2023-03-20T04:09:44.687Z,36.45
2023-03-20T04:10:44.705Z,34.45
2023-03-20T04:11:44.721Z,34.90
2023-03-20T04:12:44.746Z,31.92
2023-03-20T04:13:44.766Z,33.61
2023-03-20T04:14:44.774Z,35.02
2023-03-20T04:15:44.789Z,33.35
2023-03-20T04:16:44.806Z,32.03
2023-03-20T04:17:44.878Z,33.95
2023-03-20T04:18:44.869Z,32.31
2023-03-20T04:19:44.865Z,33.17
2023-03-20T04:20:44.905Z,35.94
2023-03-20T04:21:44.938Z,33.01
2023-03-20T04:22:44.930Z,35.17
2023-03-20T04:23:44.940Z,32.63
2023-03-20T04:24:44.950Z,33.43
2023-03-20T04:25:44.976Z,33.14
2023-03-20T04:26:44.988Z,32.98
2023-03-20T04:27:45.018Z,33.18
2023-03-20T04:28:45.036Z,32.74
2023-03-20T04:29:45.048Z,29.17
2023-03-20T04:30:45.074Z,33.79
2023-03-20T04:31:45.142Z,31.88
2023-03-20T04:32:45.185Z,31.38
2023-03-20T04:33:45.123Z,33.96
2023-03-20T04:34:45.289Z,34.74
2023-03-20T04:35:45.205Z,33.62
2023-03-20T04:36:45.161Z,32.79
2023-03-20T04:37:45.181Z,34.08
2023-03-20T04:38:45.194Z,34.56
2023-03-20T04:39:45.214Z,34.43
2023-03-20T04:40:45.242Z,33.63
2023-03-20T04:41:45.250Z,32.25
2023-03-20T04:42:45.266Z,33.45
2023-03-20T04:43:45.292Z,33.48
2023-03-20T04:44:46.284Z,34.08
2023-03-20T04:45:45.363Z,31.69
2023-03-20T04:46:45.357Z,33.91
2023-03-20T04:47:45.365Z,33.81
2023-03-20T04:48:45.377Z,34.59
2023-03-20T04:49:45.519Z,32.89
2023-03-20T04:50:45.417Z,32.63
2023-03-20T04:51:45.442Z,30.50
2023-03-20T04:52:45.461Z,33.17
2023-03-20T04:53:45.478Z,32.68
2023-03-20T04:54:45.488Z,31.17
2023-03-20T04:55:45.484Z,34.59
2023-03-20T04:56:45.512Z,30.06
2023-03-20T04:57:45.521Z,36.11
2023-03-20T04:58:45.549Z,35.47
2023-03-20T04:59:45.556Z,37.86
2023-03-20T05:00:45.644Z,33.10
2023-03-20T05:01:46.278Z,35.38
2023-03-20T05:02:45.597Z,34.07
2023-03-20T05:03:45.666Z,34.72
2023-03-20T05:04:45.633Z,38.43
2023-03-20T05:05:45.646Z,37.79
2023-03-20T05:06:45.721Z,31.55
2023-03-20T05:07:45.758Z,37.27
2023-03-20T05:08:45.712Z,39.65
2023-03-20T05:09:45.714Z,36.78
2023-03-20T06:33:48.808Z,33.08
2023-03-20T06:44:48.812Z,25.67
2023-03-20T06:59:48.821Z,27.57
2023-03-20T07:08:48.395Z,37.81
2023-03-20T07:09:48.412Z,37.84
2023-03-20T07:10:48.439Z,34.86
2023-03-20T07:11:48.435Z,36.37
2023-03-20T07:12:48.442Z,38.52
2023-03-20T07:13:49.903Z,39.13
2023-03-20T07:14:48.459Z,31.72
2023-03-20T07:16:03.400Z,37.60
2023-03-20T07:16:49.467Z,37.73
2023-03-20T07:17:48.395Z,38.21
2023-03-20T07:18:48.692Z,37.55
2023-03-20T07:43:48.836Z,41.82
2023-03-20T08:06:48.849Z,40.60
2023-03-20T13:52:39.103Z,27.00
2023-03-20T13:53:39.024Z,28.61
2023-03-20T13:54:38.991Z,28.84
2023-03-20T13:55:39.098Z,26.30
2023-03-20T13:56:39.031Z,31.14
2023-03-20T13:57:38.868Z,30.31
2023-03-20T13:58:38.808Z,31.54
2023-03-20T13:59:38.789Z,30.75
2023-03-20T14:00:38.942Z,31.68
2023-03-20T14:01:38.700Z,31.75
2023-03-20T14:02:38.635Z,29.41
2023-03-20T14:03:38.608Z,28.41
2023-03-20T14:04:38.561Z,29.42
2023-03-20T14:05:38.505Z,29.38
2023-03-20T14:06:38.459Z,28.61
2023-03-20T14:07:38.425Z,29.30
2023-03-20T15:00:53.797Z,27.53
2023-03-20T15:04:53.556Z,25.07
2023-03-20T15:08:53.350Z,36.88
2023-03-20T15:12:53.138Z,34.15
2023-03-20T15:16:52.946Z,36.05
2023-03-20T15:20:52.731Z,29.73
2023-03-20T15:24:52.607Z,37.68
2023-03-20T15:28:52.419Z,33.39
2023-03-20T15:32:52.336Z,30.29
2023-03-20T15:36:52.205Z,31.31
2023-03-20T15:40:52.251Z,33.25
2023-03-20T15:44:52.021Z,33.06
2023-03-20T15:48:51.927Z,38.79
2023-03-20T15:52:51.853Z,33.43
2023-03-20T15:56:51.811Z,34.80
2023-03-20T16:00:51.777Z,33.08
2023-03-20T16:04:51.745Z,42.76
2023-03-20T16:08:51.716Z,39.93
2023-03-20T16:12:51.786Z,38.68
2023-03-20T16:16:51.679Z,38.57
2023-03-20T16:20:51.691Z,38.87
2023-03-20T16:24:51.807Z,30.92
2023-03-20T16:28:51.764Z,33.78
2023-03-20T16:32:51.835Z,40.27
2023-03-20T16:36:51.838Z,42.56
2023-03-20T16:40:51.924Z,45.54
2023-03-20T16:44:51.999Z,40.45
2023-03-20T16:48:52.155Z,39.42
2023-03-20T16:52:52.209Z,48.26
2023-03-20T16:56:52.025Z,40.12
2023-03-20T17:00:51.962Z,41.67
2023-03-20T17:04:51.693Z,36.36
2023-03-20T17:08:51.555Z,45.18
2023-03-20T17:12:51.417Z,39.66
2023-03-20T17:16:51.318Z,44.59
2023-03-20T17:20:51.087Z,42.98
2023-03-20T17:24:50.943Z,44.14
2023-03-20T17:28:50.812Z,43.03
2023-03-20T17:32:50.678Z,45.32
2023-03-20T17:36:50.631Z,46.09
2023-03-20T17:40:50.457Z,45.07
2023-03-20T17:44:50.305Z,42.19
2023-03-20T17:48:50.360Z,44.27
2023-03-20T17:52:49.973Z,45.70
2023-03-20T17:56:49.809Z,49.49
2023-03-20T18:00:49.707Z,43.29
2023-03-20T18:04:49.513Z,46.00
2023-03-20T18:08:49.327Z,42.01
2023-03-20T18:12:49.196Z,41.66
2023-03-20T18:16:49.188Z,47.41
2023-03-20T18:20:48.994Z,41.67
2023-03-20T18:24:48.809Z,45.06
2023-03-20T18:28:48.652Z,40.93
2023-03-20T18:32:48.561Z,47.38
2023-03-20T18:36:48.352Z,45.72
2023-03-20T18:40:48.175Z,45.93
2023-03-20T18:44:48.030Z,45.89
2023-03-20T18:48:47.863Z,43.23
2023-03-20T18:52:47.704Z,44.31
2023-03-20T18:56:47.551Z,46.02
2023-03-20T19:00:48.045Z,43.06
2023-03-20T19:04:47.657Z,43.38
2023-03-20T19:08:47.497Z,42.82
2023-03-20T19:12:47.330Z,42.33
2023-03-20T19:16:47.178Z,43.95
2023-03-20T19:20:47.045Z,43.82
2023-03-20T19:24:46.857Z,43.31
2023-03-20T19:28:46.722Z,42.82
2023-03-20T19:32:46.657Z,43.32
2023-03-20T19:36:46.376Z,41.37
2023-03-20T19:40:46.210Z,44.32
2023-03-20T19:44:45.996Z,45.56
2023-03-20T19:48:50.990Z,45.90
2023-03-20T19:52:46.830Z,46.66
2023-03-20T19:56:45.677Z,49.40
2023-03-20T20:01:00.812Z,47.32
2023-03-20T20:04:46.332Z,48.50
2023-03-20T20:08:49.023Z,47.78
2023-03-20T20:12:45.083Z,48.03
2023-03-20T20:16:44.966Z,45.14
2023-03-20T20:21:24.538Z,44.43
2023-03-20T20:24:45.603Z,48.32
2023-03-20T20:28:44.496Z,46.69
2023-03-20T20:32:44.352Z,47.70
2023-03-20T20:37:40.707Z,46.76
2023-03-20T20:40:45.056Z,46.94
2023-03-20T20:44:43.952Z,47.18
2023-03-20T20:48:43.801Z,46.36
2023-03-20T20:52:43.725Z,47.01
2023-03-20T20:56:43.518Z,45.98
2023-03-20T21:00:51.777Z,43.10
2023-03-20T21:04:44.187Z,45.24
2023-03-20T21:08:43.048Z,45.21
2023-03-20T21:12:58.104Z,43.13
2023-03-20T21:16:44.086Z,43.92
2023-03-20T21:20:42.748Z,44.67
2023-03-20T21:24:42.506Z,46.19
2023-03-20T21:28:42.369Z,40.45
2023-03-20T21:32:42.255Z,44.89
2023-03-20T21:36:42.105Z,44.16
2023-03-20T21:40:42.020Z,44.23
2023-03-20T21:49:24.487Z,43.01
2023-03-20T21:53:42.824Z,42.81
2023-03-20T21:57:23.138Z,43.57
2023-03-20T22:21:29.565Z,44.25
2023-03-20T22:29:21.201Z,43.07
2023-03-20T22:33:28.253Z,43.95
2023-03-20T22:41:32.126Z,43.42
2023-03-20T22:44:59.291Z,42.81
2023-03-20T22:48:40.505Z,42.51
2023-03-20T22:52:48.593Z,39.04
2023-03-20T22:56:40.149Z,40.24
2023-03-20T23:00:39.344Z,43.31
2023-03-20T23:04:38.914Z,39.69
2023-03-20T23:08:47.988Z,37.68
2023-03-20T23:12:39.639Z,41.05
2023-03-20T23:16:38.504Z,37.85
2023-03-20T23:20:38.406Z,40.58
2023-03-20T23:24:38.621Z,38.63
2023-03-20T23:28:38.034Z,37.99
2023-03-20T23:32:37.891Z,38.06
2023-03-20T23:36:37.979Z,37.55
2023-03-20T23:40:37.925Z,37.35
2023-03-20T23:44:44.058Z,36.01
2023-03-20T23:48:38.629Z,36.09
2023-03-20T23:52:40.716Z,38.40
2023-03-20T23:56:37.941Z,38.63
